sensor_id;sensor_type;location;lat;lon;timestamp;P1;durP1;ratioP1;P2;durP2;ratioP2
8050;SDS011;4068;42.158;24.732;2022-10-30T00:00:46;22.00;;;10.00;;
8050;SDS011;4068;42.158;24.732;2022-10-30T00:03:13;21.08;;;10.82;;
8050;SDS011;4068;42.158;24.732;2022-10-30T00:05:43;17.27;;;10.02;;
8050;SDS011;4068;42.158;24.732;2022-10-30T00:08:11;12.10;;;8.63;;
8050;SDS011;4068;42.158;24.732;2022-10-30T00:10:38;20.33;;;9.00;;
8050;SDS011;4068;42.158;24.732;2022-10-30T00:13:04;18.13;;;9.35;;
8050;SDS011;4068;42.158;24.732;2022-10-30T00:15:30;19.97;;;10.47;;
8050;SDS011;4068;42.158;24.732;2022-10-30T00:17:55;20.50;;;9.70;;
8050;SDS011;4068;42.158;24.732;2022-10-30T00:20:21;15.77;;;9.82;;
8050;SDS011;4068;42.158;24.732;2022-10-30T00:22:46;18.80;;;9.17;;
8050;SDS011;4068;42.158;24.732;2022-10-30T00:25:11;13.98;;;9.40;;
8050;SDS011;4068;42.158;24.732;2022-10-30T00:27:37;18.45;;;9.27;;
8050;SDS011;4068;42.158;24.732;2022-10-30T00:30:02;15.67;;;9.13;;
8050;SDS011;4068;42.158;24.732;2022-10-30T00:32:28;18.67;;;8.87;;
8050;SDS011;4068;42.158;24.732;2022-10-30T00:34:53;14.80;;;9.57;;
8050;SDS011;4068;42.158;24.732;2022-10-30T00:37:19;13.97;;;9.13;;
8050;SDS011;4068;42.158;24.732;2022-10-30T00:39:44;14.63;;;8.33;;
8050;SDS011;4068;42.158;24.732;2022-10-30T00:42:13;18.85;;;9.35;;
8050;SDS011;4068;42.158;24.732;2022-10-30T00:47:54;19.07;;;8.70;;
8050;SDS011;4068;42.158;24.732;2022-10-30T00:52:40;16.07;;;8.60;;
8050;SDS011;4068;42.158;24.732;2022-10-30T00:55:13;14.27;;;8.10;;
8050;SDS011;4068;42.158;24.732;2022-10-30T00:57:43;15.07;;;8.43;;
8050;SDS011;4068;42.158;24.732;2022-10-30T01:00:28;14.37;;;9.53;;
8050;SDS011;4068;42.158;24.732;2022-10-30T01:02:55;16.07;;;10.30;;
8050;SDS011;4068;42.158;24.732;2022-10-30T01:05:22;16.30;;;9.33;;
8050;SDS011;4068;42.158;24.732;2022-10-30T01:07:51;16.20;;;9.67;;
8050;SDS011;4068;42.158;24.732;2022-10-30T01:10:16;17.30;;;10.20;;
8050;SDS011;4068;42.158;24.732;2022-10-30T01:12:42;35.03;;;16.33;;
8050;SDS011;4068;42.158;24.732;2022-10-30T01:15:10;62.97;;;29.33;;
8050;SDS011;4068;42.158;24.732;2022-10-30T01:17:50;67.20;;;33.17;;
8050;SDS011;4068;42.158;24.732;2022-10-30T01:31:45;23.37;;;13.43;;
8050;SDS011;4068;42.158;24.732;2022-10-30T01:34:54;79.93;;;36.43;;
8050;SDS011;4068;42.158;24.732;2022-10-30T01:37:37;127.90;;;55.00;;
8050;SDS011;4068;42.158;24.732;2022-10-30T01:40:12;81.20;;;37.20;;
8050;SDS011;4068;42.158;24.732;2022-10-30T01:51:04;33.90;;;19.10;;
8050;SDS011;4068;42.158;24.732;2022-10-30T01:56:35;35.67;;;17.93;;
8050;SDS011;4068;42.158;24.732;2022-10-30T01:59:12;26.67;;;13.90;;
8050;SDS011;4068;42.158;24.732;2022-10-30T02:01:45;37.43;;;22.20;;
8050;SDS011;4068;42.158;24.732;2022-10-30T02:04:11;31.03;;;17.90;;
8050;SDS011;4068;42.158;24.732;2022-10-30T02:06:38;30.23;;;12.90;;
8050;SDS011;4068;42.158;24.732;2022-10-30T02:09:04;24.67;;;11.93;;
8050;SDS011;4068;42.158;24.732;2022-10-30T02:11:31;17.50;;;9.53;;
8050;SDS011;4068;42.158;24.732;2022-10-30T02:13:57;20.93;;;10.07;;
8050;SDS011;4068;42.158;24.732;2022-10-30T02:16:26;15.23;;;8.73;;
8050;SDS011;4068;42.158;24.732;2022-10-30T02:18:52;12.97;;;7.87;;
8050;SDS011;4068;42.158;24.732;2022-10-30T02:21:18;15.77;;;8.20;;
8050;SDS011;4068;42.158;24.732;2022-10-30T02:23:44;14.73;;;7.87;;
8050;SDS011;4068;42.158;24.732;2022-10-30T02:26:09;15.17;;;8.10;;
8050;SDS011;4068;42.158;24.732;2022-10-30T02:28:35;14.33;;;7.97;;
8050;SDS011;4068;42.158;24.732;2022-10-30T02:31:00;13.13;;;8.23;;
8050;SDS011;4068;42.158;24.732;2022-10-30T02:33:26;16.27;;;8.70;;
8050;SDS011;4068;42.158;24.732;2022-10-30T02:35:51;12.20;;;7.93;;
8050;SDS011;4068;42.158;24.732;2022-10-30T02:38:17;11.60;;;7.90;;
8050;SDS011;4068;42.158;24.732;2022-10-30T02:40:42;13.20;;;8.20;;
8050;SDS011;4068;42.158;24.732;2022-10-30T02:43:08;15.57;;;9.27;;
8050;SDS011;4068;42.158;24.732;2022-10-30T02:45:33;12.70;;;8.17;;
8050;SDS011;4068;42.158;24.732;2022-10-30T02:47:59;12.83;;;8.03;;
8050;SDS011;4068;42.158;24.732;2022-10-30T02:50:25;14.00;;;8.60;;
8050;SDS011;4068;42.158;24.732;2022-10-30T02:52:50;12.07;;;7.60;;
8050;SDS011;4068;42.158;24.732;2022-10-30T02:55:16;14.50;;;8.03;;
8050;SDS011;4068;42.158;24.732;2022-10-30T02:57:41;17.23;;;8.33;;
8050;SDS011;4068;42.158;24.732;2022-10-30T03:00:07;15.67;;;8.67;;
8050;SDS011;4068;42.158;24.732;2022-10-30T03:02:33;12.97;;;8.37;;
8050;SDS011;4068;42.158;24.732;2022-10-30T03:04:58;15.37;;;8.43;;
8050;SDS011;4068;42.158;24.732;2022-10-30T03:07:23;13.37;;;8.67;;
8050;SDS011;4068;42.158;24.732;2022-10-30T03:09:49;13.83;;;7.73;;
8050;SDS011;4068;42.158;24.732;2022-10-30T03:12:16;10.83;;;7.80;;
8050;SDS011;4068;42.158;24.732;2022-10-30T03:14:41;10.93;;;7.73;;
8050;SDS011;4068;42.158;24.732;2022-10-30T03:17:07;14.30;;;8.03;;
8050;SDS011;4068;42.158;24.732;2022-10-30T03:19:32;11.13;;;7.67;;
8050;SDS011;4068;42.158;24.732;2022-10-30T03:21:58;12.50;;;8.13;;
8050;SDS011;4068;42.158;24.732;2022-10-30T03:24:23;14.60;;;8.17;;
8050;SDS011;4068;42.158;24.732;2022-10-30T03:26:48;12.97;;;8.47;;
8050;SDS011;4068;42.158;24.732;2022-10-30T03:29:14;14.50;;;8.53;;
8050;SDS011;4068;42.158;24.732;2022-10-30T03:31:39;13.00;;;8.43;;
8050;SDS011;4068;42.158;24.732;2022-10-30T03:34:05;32.57;;;9.07;;
8050;SDS011;4068;42.158;24.732;2022-10-30T03:36:30;15.43;;;8.50;;
8050;SDS011;4068;42.158;24.732;2022-10-30T03:38:55;13.80;;;8.07;;
8050;SDS011;4068;42.158;24.732;2022-10-30T03:41:21;15.77;;;8.17;;
8050;SDS011;4068;42.158;24.732;2022-10-30T03:43:46;17.20;;;8.90;;
8050;SDS011;4068;42.158;24.732;2022-10-30T03:46:12;16.20;;;8.57;;
8050;SDS011;4068;42.158;24.732;2022-10-30T03:48:37;14.70;;;8.67;;
8050;SDS011;4068;42.158;24.732;2022-10-30T03:51:02;13.20;;;8.53;;
8050;SDS011;4068;42.158;24.732;2022-10-30T03:53:28;11.97;;;8.17;;
8050;SDS011;4068;42.158;24.732;2022-10-30T03:56:00;14.17;;;8.37;;
8050;SDS011;4068;42.158;24.732;2022-10-30T03:58:28;16.23;;;8.70;;
8050;SDS011;4068;42.158;24.732;2022-10-30T04:00:54;16.37;;;8.63;;
8050;SDS011;4068;42.158;24.732;2022-10-30T04:03:19;13.70;;;8.57;;
8050;SDS011;4068;42.158;24.732;2022-10-30T04:05:45;17.23;;;10.50;;
8050;SDS011;4068;42.158;24.732;2022-10-30T04:08:11;19.10;;;9.13;;
8050;SDS011;4068;42.158;24.732;2022-10-30T04:10:44;14.20;;;8.60;;
8050;SDS011;4068;42.158;24.732;2022-10-30T04:13:11;14.30;;;9.37;;
8050;SDS011;4068;42.158;24.732;2022-10-30T04:15:38;19.63;;;10.77;;
8050;SDS011;4068;42.158;24.732;2022-10-30T04:18:04;15.60;;;9.87;;
8050;SDS011;4068;42.158;24.732;2022-10-30T04:20:30;16.77;;;8.93;;
8050;SDS011;4068;42.158;24.732;2022-10-30T04:22:57;18.70;;;10.10;;
8050;SDS011;4068;42.158;24.732;2022-10-30T04:25:25;13.20;;;8.27;;
8050;SDS011;4068;42.158;24.732;2022-10-30T04:27:51;13.67;;;9.33;;
8050;SDS011;4068;42.158;24.732;2022-10-30T04:30:18;17.50;;;9.20;;
8050;SDS011;4068;42.158;24.732;2022-10-30T04:33:04;14.83;;;8.13;;
8050;SDS011;4068;42.158;24.732;2022-10-30T04:35:32;17.90;;;9.23;;
8050;SDS011;4068;42.158;24.732;2022-10-30T04:38:10;16.67;;;9.33;;
8050;SDS011;4068;42.158;24.732;2022-10-30T04:40:38;15.87;;;8.30;;
8050;SDS011;4068;42.158;24.732;2022-10-30T04:43:05;16.43;;;8.63;;
8050;SDS011;4068;42.158;24.732;2022-10-30T04:45:31;14.67;;;9.23;;
8050;SDS011;4068;42.158;24.732;2022-10-30T04:48:12;17.87;;;8.87;;
8050;SDS011;4068;42.158;24.732;2022-10-30T04:50:39;14.67;;;8.77;;
8050;SDS011;4068;42.158;24.732;2022-10-30T04:53:06;15.20;;;9.43;;
8050;SDS011;4068;42.158;24.732;2022-10-30T04:55:35;14.20;;;8.77;;
8050;SDS011;4068;42.158;24.732;2022-10-30T04:58:01;28.73;;;10.53;;
8050;SDS011;4068;42.158;24.732;2022-10-30T05:00:27;18.37;;;9.23;;
8050;SDS011;4068;42.158;24.732;2022-10-30T05:02:53;13.03;;;8.33;;
8050;SDS011;4068;42.158;24.732;2022-10-30T05:05:19;14.00;;;9.00;;
8050;SDS011;4068;42.158;24.732;2022-10-30T05:07:44;15.13;;;9.33;;
8050;SDS011;4068;42.158;24.732;2022-10-30T05:10:10;16.13;;;9.13;;
8050;SDS011;4068;42.158;24.732;2022-10-30T05:12:39;18.33;;;9.37;;
8050;SDS011;4068;42.158;24.732;2022-10-30T05:15:06;13.77;;;7.40;;
8050;SDS011;4068;42.158;24.732;2022-10-30T05:17:32;17.27;;;7.07;;
8050;SDS011;4068;42.158;24.732;2022-10-30T05:19:57;18.67;;;7.60;;
8050;SDS011;4068;42.158;24.732;2022-10-30T05:22:23;14.27;;;8.17;;
8050;SDS011;4068;42.158;24.732;2022-10-30T05:24:48;14.77;;;7.70;;
8050;SDS011;4068;42.158;24.732;2022-10-30T05:27:14;10.67;;;7.17;;
8050;SDS011;4068;42.158;24.732;2022-10-30T05:29:40;9.50;;;7.57;;
8050;SDS011;4068;42.158;24.732;2022-10-30T05:32:05;15.70;;;7.50;;
8050;SDS011;4068;42.158;24.732;2022-10-30T05:34:30;9.90;;;6.90;;
8050;SDS011;4068;42.158;24.732;2022-10-30T05:36:56;13.10;;;7.47;;
8050;SDS011;4068;42.158;24.732;2022-10-30T05:39:21;19.23;;;7.70;;
8050;SDS011;4068;42.158;24.732;2022-10-30T05:41:46;9.57;;;7.17;;
8050;SDS011;4068;42.158;24.732;2022-10-30T05:44:12;16.03;;;7.57;;
8050;SDS011;4068;42.158;24.732;2022-10-30T05:46:37;15.30;;;8.50;;
8050;SDS011;4068;42.158;24.732;2022-10-30T05:49:03;17.17;;;8.07;;
8050;SDS011;4068;42.158;24.732;2022-10-30T05:51:28;13.23;;;7.30;;
8050;SDS011;4068;42.158;24.732;2022-10-30T05:53:53;10.53;;;7.17;;
8050;SDS011;4068;42.158;24.732;2022-10-30T05:56:19;11.57;;;7.03;;
8050;SDS011;4068;42.158;24.732;2022-10-30T05:58:44;13.63;;;8.07;;
8050;SDS011;4068;42.158;24.732;2022-10-30T06:01:13;15.23;;;8.60;;
8050;SDS011;4068;42.158;24.732;2022-10-30T06:03:38;14.57;;;8.95;;
8050;SDS011;4068;42.158;24.732;2022-10-30T06:06:04;18.90;;;10.43;;
8050;SDS011;4068;42.158;24.732;2022-10-30T06:08:29;19.15;;;11.02;;
8050;SDS011;4068;42.158;24.732;2022-10-30T06:10:54;20.95;;;11.35;;
8050;SDS011;4068;42.158;24.732;2022-10-30T06:13:20;26.17;;;13.10;;
8050;SDS011;4068;42.158;24.732;2022-10-30T06:15:46;26.42;;;14.45;;
8050;SDS011;4068;42.158;24.732;2022-10-30T06:18:11;24.02;;;14.65;;
8050;SDS011;4068;42.158;24.732;2022-10-30T06:20:36;34.65;;;16.55;;
8050;SDS011;4068;42.158;24.732;2022-10-30T06:23:03;32.30;;;16.20;;
8050;SDS011;4068;42.158;24.732;2022-10-30T06:25:31;19.52;;;10.93;;
8050;SDS011;4068;42.158;24.732;2022-10-30T06:27:58;18.83;;;9.55;;
8050;SDS011;4068;42.158;24.732;2022-10-30T06:30:24;16.23;;;8.75;;
8050;SDS011;4068;42.158;24.732;2022-10-30T06:32:54;12.80;;;8.40;;
8050;SDS011;4068;42.158;24.732;2022-10-30T06:35:23;13.23;;;8.60;;
8050;SDS011;4068;42.158;24.732;2022-10-30T06:37:49;12.55;;;8.50;;
8050;SDS011;4068;42.158;24.732;2022-10-30T06:40:21;18.42;;;8.48;;
8050;SDS011;4068;42.158;24.732;2022-10-30T06:42:51;17.10;;;8.27;;
8050;SDS011;4068;42.158;24.732;2022-10-30T06:45:18;11.68;;;8.27;;
8050;SDS011;4068;42.158;24.732;2022-10-30T06:47:44;15.82;;;8.73;;
8050;SDS011;4068;42.158;24.732;2022-10-30T06:50:12;13.63;;;7.25;;
8050;SDS011;4068;42.158;24.732;2022-10-30T06:52:39;10.52;;;7.03;;
8050;SDS011;4068;42.158;24.732;2022-10-30T06:55:05;12.20;;;7.65;;
8050;SDS011;4068;42.158;24.732;2022-10-30T06:57:31;10.65;;;6.75;;
8050;SDS011;4068;42.158;24.732;2022-10-30T06:59:57;10.65;;;6.43;;
8050;SDS011;4068;42.158;24.732;2022-10-30T07:02:22;8.73;;;6.07;;
8050;SDS011;4068;42.158;24.732;2022-10-30T07:04:48;14.75;;;7.22;;
8050;SDS011;4068;42.158;24.732;2022-10-30T07:07:13;14.18;;;7.28;;
8050;SDS011;4068;42.158;24.732;2022-10-30T07:09:40;13.82;;;6.28;;
8050;SDS011;4068;42.158;24.732;2022-10-30T07:12:06;14.73;;;6.55;;
8050;SDS011;4068;42.158;24.732;2022-10-30T07:14:32;9.48;;;6.32;;
8050;SDS011;4068;42.158;24.732;2022-10-30T07:16:58;11.18;;;6.60;;
8050;SDS011;4068;42.158;24.732;2022-10-30T07:19:23;10.60;;;7.10;;
8050;SDS011;4068;42.158;24.732;2022-10-30T07:21:49;17.10;;;8.30;;
8050;SDS011;4068;42.158;24.732;2022-10-30T07:24:14;13.13;;;8.73;;
8050;SDS011;4068;42.158;24.732;2022-10-30T07:26:40;13.95;;;9.05;;
8050;SDS011;4068;42.158;24.732;2022-10-30T07:29:05;21.13;;;9.32;;
8050;SDS011;4068;42.158;24.732;2022-10-30T07:31:31;17.92;;;7.88;;
8050;SDS011;4068;42.158;24.732;2022-10-30T07:33:56;14.93;;;8.20;;
8050;SDS011;4068;42.158;24.732;2022-10-30T07:36:22;12.05;;;7.18;;
8050;SDS011;4068;42.158;24.732;2022-10-30T07:38:48;10.13;;;7.18;;
8050;SDS011;4068;42.158;24.732;2022-10-30T07:41:14;12.10;;;8.18;;
8050;SDS011;4068;42.158;24.732;2022-10-30T07:43:42;12.25;;;7.85;;
8050;SDS011;4068;42.158;24.732;2022-10-30T07:46:07;10.75;;;7.63;;
8050;SDS011;4068;42.158;24.732;2022-10-30T07:48:32;11.65;;;7.65;;
8050;SDS011;4068;42.158;24.732;2022-10-30T07:50:58;16.27;;;7.72;;
8050;SDS011;4068;42.158;24.732;2022-10-30T07:53:23;14.45;;;8.55;;
8050;SDS011;4068;42.158;24.732;2022-10-30T07:55:49;16.10;;;8.30;;
8050;SDS011;4068;42.158;24.732;2022-10-30T07:58:14;10.63;;;7.93;;
8050;SDS011;4068;42.158;24.732;2022-10-30T08:00:39;15.00;;;8.00;;
8050;SDS011;4068;42.158;24.732;2022-10-30T08:03:05;12.95;;;7.32;;
8050;SDS011;4068;42.158;24.732;2022-10-30T08:05:30;11.20;;;7.50;;
8050;SDS011;4068;42.158;24.732;2022-10-30T08:07:56;15.15;;;8.07;;
8050;SDS011;4068;42.158;24.732;2022-10-30T08:10:22;12.25;;;7.85;;
8050;SDS011;4068;42.158;24.732;2022-10-30T08:12:47;15.80;;;7.20;;
8050;SDS011;4068;42.158;24.732;2022-10-30T08:15:13;14.05;;;7.35;;
8050;SDS011;4068;42.158;24.732;2022-10-30T08:17:42;14.82;;;7.13;;
8050;SDS011;4068;42.158;24.732;2022-10-30T08:20:09;10.27;;;6.38;;
8050;SDS011;4068;42.158;24.732;2022-10-30T08:25:14;12.45;;;6.85;;
8050;SDS011;4068;42.158;24.732;2022-10-30T08:27:52;9.20;;;6.47;;
8050;SDS011;4068;42.158;24.732;2022-10-30T08:30:23;6.75;;;4.80;;
8050;SDS011;4068;42.158;24.732;2022-10-30T08:32:49;8.85;;;4.90;;
8050;SDS011;4068;42.158;24.732;2022-10-30T08:35:15;5.10;;;4.57;;
8050;SDS011;4068;42.158;24.732;2022-10-30T08:37:40;6.60;;;4.93;;
8050;SDS011;4068;42.158;24.732;2022-10-30T08:40:06;7.13;;;5.47;;
8050;SDS011;4068;42.158;24.732;2022-10-30T08:42:32;6.32;;;5.00;;
8050;SDS011;4068;42.158;24.732;2022-10-30T08:44:58;9.68;;;5.10;;
8050;SDS011;4068;42.158;24.732;2022-10-30T08:47:23;7.38;;;4.63;;
8050;SDS011;4068;42.158;24.732;2022-10-30T08:49:48;8.98;;;5.10;;
8050;SDS011;4068;42.158;24.732;2022-10-30T08:52:14;7.10;;;4.80;;
8050;SDS011;4068;42.158;24.732;2022-10-30T08:54:39;9.02;;;5.30;;
8050;SDS011;4068;42.158;24.732;2022-10-30T08:57:04;5.28;;;4.78;;
8050;SDS011;4068;42.158;24.732;2022-10-30T08:59:30;6.95;;;5.00;;
8050;SDS011;4068;42.158;24.732;2022-10-30T09:01:55;12.10;;;5.28;;
8050;SDS011;4068;42.158;24.732;2022-10-30T09:04:20;6.32;;;4.60;;
8050;SDS011;4068;42.158;24.732;2022-10-30T09:06:46;7.18;;;4.40;;
8050;SDS011;4068;42.158;24.732;2022-10-30T09:09:11;5.53;;;4.20;;
8050;SDS011;4068;42.158;24.732;2022-10-30T09:11:38;5.85;;;4.43;;
8050;SDS011;4068;42.158;24.732;2022-10-30T09:14:04;7.03;;;4.82;;
8050;SDS011;4068;42.158;24.732;2022-10-30T09:16:29;6.90;;;4.90;;
8050;SDS011;4068;42.158;24.732;2022-10-30T09:18:55;4.70;;;4.20;;
8050;SDS011;4068;42.158;24.732;2022-10-30T09:21:20;7.57;;;4.20;;
8050;SDS011;4068;42.158;24.732;2022-10-30T09:23:45;4.88;;;3.85;;
8050;SDS011;4068;42.158;24.732;2022-10-30T09:26:11;6.90;;;4.03;;
8050;SDS011;4068;42.158;24.732;2022-10-30T09:28:36;7.07;;;3.63;;
8050;SDS011;4068;42.158;24.732;2022-10-30T09:31:02;7.30;;;3.78;;
8050;SDS011;4068;42.158;24.732;2022-10-30T09:33:27;6.65;;;3.53;;
8050;SDS011;4068;42.158;24.732;2022-10-30T09:35:53;4.20;;;3.75;;
8050;SDS011;4068;42.158;24.732;2022-10-30T09:38:18;4.32;;;3.70;;
8050;SDS011;4068;42.158;24.732;2022-10-30T09:40:52;5.28;;;3.70;;
8050;SDS011;4068;42.158;24.732;2022-10-30T09:53:53;8.63;;;4.25;;
8050;SDS011;4068;42.158;24.732;2022-10-30T09:56:30;5.60;;;4.03;;
8050;SDS011;4068;42.158;24.732;2022-10-30T09:59:05;9.30;;;4.82;;
8050;SDS011;4068;42.158;24.732;2022-10-30T10:07:03;7.28;;;5.00;;
8050;SDS011;4068;42.158;24.732;2022-10-30T10:10:03;5.20;;;3.88;;
8050;SDS011;4068;42.158;24.732;2022-10-30T10:14:59;5.95;;;4.32;;
8050;SDS011;4068;42.158;24.732;2022-10-30T10:17:33;6.78;;;3.88;;
8050;SDS011;4068;42.158;24.732;2022-10-30T10:20:03;4.82;;;4.13;;
8050;SDS011;4068;42.158;24.732;2022-10-30T10:22:46;6.32;;;4.40;;
8050;SDS011;4068;42.158;24.732;2022-10-30T10:25:14;8.40;;;5.22;;
8050;SDS011;4068;42.158;24.732;2022-10-30T10:28:29;14.40;;;6.35;;
8050;SDS011;4068;42.158;24.732;2022-10-30T10:33:10;12.45;;;5.45;;
8050;SDS011;4068;42.158;24.732;2022-10-30T10:36:00;8.52;;;6.28;;
8050;SDS011;4068;42.158;24.732;2022-10-30T10:38:58;11.20;;;6.18;;
8050;SDS011;4068;42.158;24.732;2022-10-30T10:44:27;11.60;;;6.75;;
8050;SDS011;4068;42.158;24.732;2022-10-30T10:50:04;12.48;;;9.15;;
8050;SDS011;4068;42.158;24.732;2022-10-30T10:52:51;13.20;;;8.40;;
8050;SDS011;4068;42.158;24.732;2022-10-30T10:55:22;11.80;;;7.40;;
8050;SDS011;4068;42.158;24.732;2022-10-30T10:57:52;15.38;;;8.18;;
8050;SDS011;4068;42.158;24.732;2022-10-30T11:00:22;12.63;;;7.32;;
8050;SDS011;4068;42.158;24.732;2022-10-30T11:10:55;9.82;;;4.82;;
8050;SDS011;4068;42.158;24.732;2022-10-30T11:13:29;5.88;;;4.22;;
8050;SDS011;4068;42.158;24.732;2022-10-30T11:18:45;8.27;;;3.83;;
8050;SDS011;4068;42.158;24.732;2022-10-30T11:21:16;6.07;;;3.30;;
8050;SDS011;4068;42.158;24.732;2022-10-30T11:23:46;3.58;;;2.63;;
8050;SDS011;4068;42.158;24.732;2022-10-30T11:31:30;4.05;;;2.60;;
8050;SDS011;4068;42.158;24.732;2022-10-30T11:36:49;6.97;;;3.10;;
8050;SDS011;4068;42.158;24.732;2022-10-30T11:44:43;4.15;;;2.75;;
8050;SDS011;4068;42.158;24.732;2022-10-30T11:47:13;7.28;;;3.20;;
8050;SDS011;4068;42.158;24.732;2022-10-30T11:49:44;7.20;;;2.55;;
8050;SDS011;4068;42.158;24.732;2022-10-30T11:52:11;4.25;;;2.67;;
8050;SDS011;4068;42.158;24.732;2022-10-30T11:54:40;5.15;;;2.95;;
8050;SDS011;4068;42.158;24.732;2022-10-30T11:57:16;7.03;;;3.92;;
8050;SDS011;4068;42.158;24.732;2022-10-30T12:00:07;2.83;;;2.10;;
8050;SDS011;4068;42.158;24.732;2022-10-30T12:02:50;8.10;;;3.08;;
8050;SDS011;4068;42.158;24.732;2022-10-30T12:07:51;8.90;;;3.30;;
8050;SDS011;4068;42.158;24.732;2022-10-30T12:10:41;4.70;;;3.63;;
8050;SDS011;4068;42.158;24.732;2022-10-30T12:13:13;3.65;;;2.88;;
8050;SDS011;4068;42.158;24.732;2022-10-30T12:15:41;4.13;;;2.90;;
8050;SDS011;4068;42.158;24.732;2022-10-30T12:18:15;7.57;;;3.40;;
8050;SDS011;4068;42.158;24.732;2022-10-30T12:20:44;4.97;;;2.70;;
8050;SDS011;4068;42.158;24.732;2022-10-30T12:23:15;6.43;;;2.85;;
8050;SDS011;4068;42.158;24.732;2022-10-30T12:25:48;6.13;;;2.88;;
8050;SDS011;4068;42.158;24.732;2022-10-30T12:28:19;3.83;;;2.97;;
8050;SDS011;4068;42.158;24.732;2022-10-30T12:30:51;6.60;;;2.72;;
8050;SDS011;4068;42.158;24.732;2022-10-30T12:33:23;4.20;;;2.88;;
8050;SDS011;4068;42.158;24.732;2022-10-30T12:43:56;6.18;;;4.20;;
8050;SDS011;4068;42.158;24.732;2022-10-30T12:54:23;4.45;;;3.78;;
8050;SDS011;4068;42.158;24.732;2022-10-30T12:57:00;4.00;;;2.88;;
8050;SDS011;4068;42.158;24.732;2022-10-30T13:10:48;5.00;;;2.80;;
8050;SDS011;4068;42.158;24.732;2022-10-30T13:13:19;8.65;;;3.78;;
8050;SDS011;4068;42.158;24.732;2022-10-30T13:15:51;7.88;;;2.67;;
8050;SDS011;4068;42.158;24.732;2022-10-30T13:18:21;5.78;;;2.58;;
8050;SDS011;4068;42.158;24.732;2022-10-30T13:23:35;5.93;;;2.97;;
8050;SDS011;4068;42.158;24.732;2022-10-30T13:36:44;3.83;;;3.08;;
8050;SDS011;4068;42.158;24.732;2022-10-30T13:39:58;8.88;;;2.92;;
8050;SDS011;4068;42.158;24.732;2022-10-30T13:45:16;10.13;;;7.28;;
8050;SDS011;4068;42.158;24.732;2022-10-30T13:54:12;9.13;;;3.45;;
8050;SDS011;4068;42.158;24.732;2022-10-30T13:56:44;6.90;;;3.40;;
8050;SDS011;4068;42.158;24.732;2022-10-30T14:01:48;12.25;;;6.32;;
8050;SDS011;4068;42.158;24.732;2022-10-30T14:04:18;7.70;;;3.38;;
8050;SDS011;4068;42.158;24.732;2022-10-30T14:06:56;10.43;;;3.50;;
8050;SDS011;4068;42.158;24.732;2022-10-30T14:12:43;11.80;;;4.25;;
8050;SDS011;4068;42.158;24.732;2022-10-30T14:15:44;6.47;;;3.67;;
8050;SDS011;4068;42.158;24.732;2022-10-30T14:20:36;6.85;;;4.15;;
8050;SDS011;4068;42.158;24.732;2022-10-30T14:25:44;8.93;;;3.70;;
8050;SDS011;4068;42.158;24.732;2022-10-30T14:28:25;7.95;;;5.28;;
8050;SDS011;4068;42.158;24.732;2022-10-30T14:31:04;6.28;;;3.60;;
8050;SDS011;4068;42.158;24.732;2022-10-30T14:33:33;11.77;;;4.10;;
8050;SDS011;4068;42.158;24.732;2022-10-30T14:47:32;6.13;;;4.05;;
8050;SDS011;4068;42.158;24.732;2022-10-30T14:50:30;7.57;;;4.43;;
8050;SDS011;4068;42.158;24.732;2022-10-30T14:56:03;11.77;;;5.18;;
8050;SDS011;4068;42.158;24.732;2022-10-30T14:58:35;17.08;;;9.50;;
8050;SDS011;4068;42.158;24.732;2022-10-30T15:08:49;11.00;;;4.90;;
8050;SDS011;4068;42.158;24.732;2022-10-30T15:22:50;16.08;;;6.43;;
8050;SDS011;4068;42.158;24.732;2022-10-30T15:25:18;12.88;;;6.13;;
8050;SDS011;4068;42.158;24.732;2022-10-30T15:27:46;15.50;;;6.70;;
8050;SDS011;4068;42.158;24.732;2022-10-30T15:30:16;15.18;;;6.18;;
8050;SDS011;4068;42.158;24.732;2022-10-30T15:32:43;15.00;;;6.40;;
8050;SDS011;4068;42.158;24.732;2022-10-30T15:35:13;10.93;;;6.32;;
8050;SDS011;4068;42.158;24.732;2022-10-30T15:40:25;15.32;;;5.63;;
8050;SDS011;4068;42.158;24.732;2022-10-30T15:42:52;8.27;;;5.45;;
8050;SDS011;4068;42.158;24.732;2022-10-30T15:45:20;14.40;;;5.85;;
8050;SDS011;4068;42.158;24.732;2022-10-30T15:48:11;14.80;;;6.38;;
8050;SDS011;4068;42.158;24.732;2022-10-30T15:51:03;12.23;;;6.60;;
8050;SDS011;4068;42.158;24.732;2022-10-30T15:55:59;14.13;;;7.10;;
8050;SDS011;4068;42.158;24.732;2022-10-30T15:58:25;20.25;;;7.32;;
8050;SDS011;4068;42.158;24.732;2022-10-30T16:00:57;16.08;;;6.97;;
8050;SDS011;4068;42.158;24.732;2022-10-30T16:03:25;18.90;;;6.95;;
8050;SDS011;4068;42.158;24.732;2022-10-30T16:06:01;19.17;;;7.53;;
8050;SDS011;4068;42.158;24.732;2022-10-30T16:08:28;14.85;;;7.43;;
8050;SDS011;4068;42.158;24.732;2022-10-30T16:10:53;24.92;;;11.00;;
8050;SDS011;4068;42.158;24.732;2022-10-30T16:13:25;29.80;;;13.80;;
8050;SDS011;4068;42.158;24.732;2022-10-30T16:15:53;30.98;;;13.88;;
8050;SDS011;4068;42.158;24.732;2022-10-30T16:18:20;28.15;;;12.65;;
8050;SDS011;4068;42.158;24.732;2022-10-30T16:20:53;30.85;;;13.40;;
8050;SDS011;4068;42.158;24.732;2022-10-30T16:23:20;25.05;;;12.93;;
8050;SDS011;4068;42.158;24.732;2022-10-30T16:25:47;37.72;;;13.43;;
8050;SDS011;4068;42.158;24.732;2022-10-30T16:28:21;23.05;;;12.55;;
8050;SDS011;4068;42.158;24.732;2022-10-30T16:31:07;28.60;;;11.43;;
8050;SDS011;4068;42.158;24.732;2022-10-30T16:33:39;21.25;;;11.10;;
8050;SDS011;4068;42.158;24.732;2022-10-30T16:36:07;32.30;;;11.15;;
8050;SDS011;4068;42.158;24.732;2022-10-30T16:38:38;27.05;;;12.32;;
8050;SDS011;4068;42.158;24.732;2022-10-30T16:41:05;32.10;;;10.93;;
8050;SDS011;4068;42.158;24.732;2022-10-30T16:43:32;25.92;;;11.25;;
8050;SDS011;4068;42.158;24.732;2022-10-30T16:49:02;21.80;;;10.52;;
8050;SDS011;4068;42.158;24.732;2022-10-30T16:51:27;28.42;;;10.98;;
8050;SDS011;4068;42.158;24.732;2022-10-30T16:53:54;25.90;;;9.55;;
8050;SDS011;4068;42.158;24.732;2022-10-30T16:56:21;28.02;;;10.45;;
8050;SDS011;4068;42.158;24.732;2022-10-30T16:58:47;35.63;;;12.70;;
8050;SDS011;4068;42.158;24.732;2022-10-30T17:01:13;34.75;;;13.68;;
8050;SDS011;4068;42.158;24.732;2022-10-30T17:03:39;24.52;;;11.25;;
8050;SDS011;4068;42.158;24.732;2022-10-30T17:09:08;26.58;;;10.70;;
8050;SDS011;4068;42.158;24.732;2022-10-30T17:11:46;23.35;;;10.00;;
8050;SDS011;4068;42.158;24.732;2022-10-30T17:14:25;16.38;;;8.88;;
8050;SDS011;4068;42.158;24.732;2022-10-30T17:16:54;23.08;;;8.93;;
8050;SDS011;4068;42.158;24.732;2022-10-30T17:21:54;30.42;;;12.20;;
8050;SDS011;4068;42.158;24.732;2022-10-30T17:24:32;33.08;;;14.93;;
8050;SDS011;4068;42.158;24.732;2022-10-30T17:27:00;24.95;;;12.70;;
8050;SDS011;4068;42.158;24.732;2022-10-30T17:32:02;23.63;;;11.70;;
8050;SDS011;4068;42.158;24.732;2022-10-30T17:34:29;23.15;;;10.38;;
8050;SDS011;4068;42.158;24.732;2022-10-30T17:37:01;21.92;;;9.48;;
8050;SDS011;4068;42.158;24.732;2022-10-30T17:39:26;32.67;;;12.25;;
8050;SDS011;4068;42.158;24.732;2022-10-30T17:41:51;20.45;;;9.35;;
8050;SDS011;4068;42.158;24.732;2022-10-30T17:44:21;29.17;;;9.57;;
8050;SDS011;4068;42.158;24.732;2022-10-30T17:46:48;18.45;;;8.85;;
8050;SDS011;4068;42.158;24.732;2022-10-30T17:51:54;13.60;;;8.20;;
8050;SDS011;4068;42.158;24.732;2022-10-30T17:54:20;17.83;;;9.02;;
8050;SDS011;4068;42.158;24.732;2022-10-30T17:56:45;23.08;;;8.68;;
8050;SDS011;4068;42.158;24.732;2022-10-30T17:59:11;30.25;;;9.18;;
8050;SDS011;4068;42.158;24.732;2022-10-30T18:01:36;21.75;;;8.73;;
8050;SDS011;4068;42.158;24.732;2022-10-30T18:04:04;20.10;;;9.60;;
8050;SDS011;4068;42.158;24.732;2022-10-30T18:06:35;19.08;;;7.97;;
8050;SDS011;4068;42.158;24.732;2022-10-30T18:09:01;20.33;;;8.82;;
8050;SDS011;4068;42.158;24.732;2022-10-30T18:11:26;19.15;;;8.90;;
8050;SDS011;4068;42.158;24.732;2022-10-30T18:13:54;15.82;;;8.65;;
8050;SDS011;4068;42.158;24.732;2022-10-30T18:16:20;28.63;;;12.02;;